Date,TemperatureHighF,TemperatureAvgF,TemperatureLowF,DewpointHighF,DewpointAvgF,DewpointLowF,HumidityHigh,HumidityAvg,HumidityLow,PressureMaxIn,PressureMinIn,WindSpeedMaxMPH,WindSpeedAvgMPH,GustSpeedMaxMPH,PrecipitationSumIn
2014-2-18,43,35,24,32,28,21,90,75,59,0.00,40.00,26,18,32,0.00
2014-2-19,40,35,25,32,30,24,95,82,68,0.00,40.00,18,10,20,0.00
2014-2-20,49,38,35,48,36,30,97,91,77,0.00,40.00,43,20,57,0.00
2014-2-21,42,35,30,30,26,20,87,70,52,0.00,40.00,39,19,47,0.00
2014-2-22,39,32,28,30,24,-100,90,76,62,0.00,40.00,13,6,19,0.00
2014-2-23,32,25,20,19,14,11,74,62,49,0.00,40.00,19,12,25,0.00
2014-2-24,25,20,16,14,12,10,77,71,63,0.00,40.00,15,10,22,0.00
2014-5-13,54,52,51,48,47,46,87,81,78,0.00,40.00,14,8,21,0.00
2014-5-14,55,50,46,47,43,40,93,77,58,0.00,40.00,18,11,26,0.00
2014-5-15,58,50,46,47,44,40,96,80,52,0.00,40.00,18,7,28,0.00
2014-5-16,52,46,43,43,41,37,95,84,63,0.00,40.00,19,8,26,0.00
2014-5-17,62,50,38,41,33,-100,95,60,33,0.00,40.00,11,7,19,0.00
2014-5-18,69,56,44,45,40,36,84,59,37,0.00,40.00,14,10,20,0.00
2014-6-7,79,62,77,59,27,-100,53,42,51,0.00,40.00,24,17,35,0.00
2014-6-9,76,76,76,63,63,63,64,64,64,0.00,40.00,10,10,13,0.00
2014-6-11,65,65,65,60,60,60,85,85,85,0.00,40.00,9,9,11,0.00
2014-6-19,76,76,76,73,73,73,91,91,91,0.00,40.00,1,1,1,0.00
2014-6-24,80,75,70,69,67,65,86,78,71,0.00,40.00,6,4,7,0.00
2014-6-25,79,79,79,66,66,66,63,63,63,0.00,40.00,7,7,11,0.00
2014-6-27,85,82,80,70,70,70,71,66,61,0.00,40.00,11,10,24,0.00
2014-6-28,-200,0,200,-100,-100,-100,0,0,100,0.00,40.00,14,14,19,0.00
2014-6-29,74,73,72,72,70,67,95,90,83,0.00,40.00,27,16,39,0.00
2014-6-30,88,80,73,78,75,71,94,84,72,0.00,40.00,19,17,33,0.00
2014-7-13,71,71,71,66,66,66,84,84,84,0.00,40.00,6,5,6,0.00
2014-7-14,68,68,67,66,66,65,95,94,93,0.00,40.00,7,4,8,0.00
2014-7-30,83,76,65,63,61,59,86,63,47,0.00,40.00,11,6,15,0.00
2014-7-31,82,62,59,64,56,58,96,82,49,0.00,40.00,8,5,10,0.00
2014-8-1,84,69,61,67,63,60,97,82,50,0.00,40.00,14,5,26,0.00
2014-8-2,85,69,59,68,63,58,96,83,47,0.00,40.00,6,3,8,0.00
2014-8-3,87,70,59,66,63,57,95,80,49,0.00,40.00,6,3,9,0.00
2014-8-4,85,73,60,69,66,58,96,80,55,0.00,40.00,12,7,17,0.00
2014-8-5,79,76,66,69,68,65,96,77,71,0.00,40.00,14,5,18,0.00
2014-8-6,76,72,66,70,68,65,96,88,76,0.00,40.00,8,3,11,0.00
2014-8-20,73,71,70,70,69,68,95,94,91,0.00,40.00,12,9,21,0.00
2014-9-2,86,75,67,70,66,62,96,77,48,0.00,40.00,11,7,16,0.00
2014-9-3,85,74,60,70,65,59,96,77,47,0.00,40.00,16,8,24,0.00
2014-9-4,90,79,68,77,71,66,95,80,61,0.00,40.00,19,13,27,0.00
2014-9-5,92,77,62,75,70,60,95,82,55,0.00,40.00,14,10,24,0.00
2014-9-6,74,64,57,61,56,52,96,78,47,0.00,40.00,11,7,18,0.00
2014-9-7,80,64,49,59,53,48,96,72,37,0.00,40.00,6,3,14,0.00
2014-9-8,81,65,49,59,54,48,96,72,38,0.00,40.00,14,6,20,0.00
2014-9-14,71,54,38,48,42,37,97,68,35,0.00,40.00,11,5,16,0.00
2014-9-15,59,56,48,57,53,45,96,90,71,0.00,40.00,14,6,24,0.00
2014-9-16,71,58,47,54,48,44,96,73,40,0.00,40.00,12,4,18,0.00
2014-9-17,69,56,44,55,49,42,96,78,49,0.00,40.00,12,4,18,0.00
2014-9-18,78,62,45,56,49,44,96,68,36,0.00,40.00,11,5,23,0.00
2014-9-19,79,64,46,55,50,45,96,67,38,0.00,40.00,16,9,24,0.00
2014-9-20,84,69,58,70,63,55,95,80,61,0.00,40.00,23,12,29,0.00
2014-9-21,70,69,69,68,68,67,95,95,95,0.00,40.00,12,10,16,0.00
2014-9-29,86,78,64,59,57,53,80,51,36,0.00,40.00,11,6,19,0.00
2014-9-30,74,62,53,59,54,49,96,77,51,0.00,40.00,15,10,19,0.00
2014-10-1,81,64,50,65,56,48,96,78,45,0.00,40.00,20,9,27,0.00
2014-10-2,70,66,64,67,65,63,96,94,86,0.00,40.00,20,9,27,0.00
2014-10-3,65,55,45,63,48,30,96,78,53,0.00,40.00,34,16,45,0.00
2014-10-4,45,44,44,32,31,30,62,60,55,0.00,40.00,14,13,20,0.00
2014-10-8,70,63,52,45,40,37,68,43,32,0.00,40.00,14,8,22,0.00
2014-10-9,60,55,52,54,51,41,96,87,68,0.00,40.00,10,4,12,0.00
2014-10-10,59,53,46,54,40,36,95,64,43,0.00,40.00,18,9,23,0.00
2014-10-11,46,43,41,42,38,37,86,84,82,0.00,40.00,7,5,9,0.00
2014-10-12,57,54,34,56,53,33,97,97,96,0.00,40.00,8,7,13,0.00
2014-10-13,68,64,56,65,61,55,97,92,85,0.00,40.00,23,17,34,0.00
2014-10-14,60,59,58,59,58,56,96,94,93,0.00,40.00,19,11,24,0.00
2014-10-23,61,50,35,47,42,33,95,75,50,0.00,40.00,14,9,22,0.00
2014-10-24,66,57,44,55,50,43,96,80,62,0.00,40.00,13,7,18,0.00
2014-10-25,77,62,51,60,49,38,97,69,30,0.00,40.00,14,8,19,0.00
2014-10-26,72,56,40,45,37,34,84,52,26,0.00,40.00,14,8,21,0.00
2014-10-27,76,67,61,63,59,45,93,75,52,0.00,40.00,24,17,34,0.00
2014-10-28,64,56,43,61,42,32,96,62,35,0.00,40.00,24,13,34,0.00
2014-10-29,53,44,35,38,35,32,90,72,51,0.00,40.00,20,9,29,0.00
2014-10-30,43,40,36,42,38,33,97,93,86,0.00,40.00,10,6,11,0.00
2014-10-31,46,40,33,44,28,19,97,62,41,0.00,40.00,31,18,42,0.00
2014-11-1,49,36,27,29,24,20,87,62,43,0.00,40.00,15,8,23,0.00
2014-11-2,51,40,24,31,27,22,93,63,35,0.00,40.00,26,15,35,0.00
2014-11-3,68,54,41,45,36,28,66,52,42,0.00,40.00,29,20,37,0.00
2014-11-4,58,49,41,53,43,37,96,82,46,0.00,40.00,21,15,31,0.00
2014-11-5,63,49,37,44,39,34,97,73,34,0.00,40.00,19,12,31,0.00
2014-11-6,49,42,28,46,36,26,95,78,60,0.00,40.00,28,17,38,0.00
2014-11-7,49,38,26,34,30,24,97,75,51,0.00,40.00,19,9,25,0.00
2014-11-8,43,42,41,36,35,34,80,78,75,0.00,40.00,19,17,25,0.00
2014-11-9,48,47,46,38,37,35,74,68,61,0.00,40.00,18,14,21,0.00
2014-11-10,66,54,43,47,43,38,92,68,47,0.00,40.00,36,21,47,0.00
2014-11-11,57,37,30,47,31,24,85,78,69,0.00,40.00,26,18,36,0.00
2014-11-12,30,27,24,24,19,15,77,70,61,0.00,40.00,19,15,29,0.00
2014-11-13,31,24,18,22,18,14,94,77,57,0.00,40.00,21,13,26,0.00
2014-11-14,31,23,16,18,15,13,95,74,50,0.00,40.00,14,7,19,0.00
2014-11-15,21,19,17,16,14,13,86,81,76,0.00,40.00,7,4,9,0.00
2014-11-17,24,18,13,18,10,3,92,70,47,0.00,40.00,34,20,44,0.00
2014-11-18,21,15,10,11,7,5,84,70,52,0.00,40.00,23,16,32,0.00
2014-11-19,35,27,18,23,17,12,77,67,59,0.00,40.00,30,21,42,0.00
2014-11-20,34,24,15,17,12,8,83,63,40,0.00,40.00,24,13,33,0.00
2014-11-21,38,25,6,30,12,3,91,61,35,0.00,40.00,21,11,28,0.00
2014-11-22,56,45,33,49,42,31,97,87,77,0.00,40.00,23,15,29,0.00
2014-11-23,51,50,49,50,46,44,96,88,81,0.00,40.00,19,16,24,0.00
2014-11-25,21,20,18,20,19,17,94,94,94,0.00,40.00,8,6,9,0.00
2014-11-26,29,21,17,26,20,16,95,94,89,0.00,40.00,18,8,21,0.00
2014-11-29,55,49,47,48,46,42,96,86,76,0.00,40.00,23,16,30,0.00
2014-11-30,56,41,27,54,38,19,97,90,73,0.00,40.00,20,14,26,0.00
2014-12-1,27,23,16,19,11,6,76,60,45,0.00,40.00,19,12,26,0.00
2014-12-2,31,24,14,26,20,10,93,87,76,0.00,40.00,14,9,18,0.00
2014-12-3,41,30,25,26,22,19,93,75,43,0.00,40.00,14,10,18,0.00
2014-12-4,34,30,25,32,26,19,96,84,73,0.00,40.00,14,9,22,0.00
2014-12-5,39,35,33,38,34,32,97,97,96,0.00,40.00,9,7,12,0.00
2014-12-8,41,38,32,40,34,26,97,87,78,0.00,40.00,23,15,31,0.00
2014-12-9,35,32,31,31,28,26,87,85,79,0.00,40.00,20,13,28,0.00
2014-12-10,33,32,31,26,25,24,79,74,68,0.00,40.00,9,5,14,0.00
2014-12-11,28,25,23,25,23,22,94,91,88,0.00,40.00,8,6,9,0.00
2014-12-12,37,33,23,34,30,21,95,89,80,0.00,40.00,12,6,16,0.00
2014-12-13,52,44,34,46,41,33,95,90,81,0.00,40.00,12,9,16,0.00
2014-12-14,49,45,42,48,44,41,97,96,95,0.00,40.00,18,10,24,0.00
2014-12-15,48,47,46,47,46,44,97,96,95,0.00,40.00,32,17,41,0.00
2014-12-16,46,36,25,45,34,21,96,91,84,0.00,40.00,30,21,43,0.00
2014-12-17,26,23,20,21,18,16,91,82,73,0.00,40.00,19,9,26,0.00
2014-12-18,24,22,19,21,20,17,94,92,89,0.00,40.00,5,2,10,0.00
2014-12-24,36,36,36,34,33,31,92,88,81,0.00,40.00,16,14,24,0.00
2014-12-25,48,39,35,36,33,30,90,79,61,0.00,40.00,19,14,30,0.00
2014-12-26,54,44,36,44,40,34,94,84,65,0.00,40.00,21,15,29,0.00
2014-12-27,48,40,31,47,36,26,97,88,79,0.00,40.00,23,15,30,0.00
2014-12-28,36,28,24,26,21,17,87,75,52,0.00,40.00,16,7,24,0.00
2014-12-31,23,18,10,8,5,2,70,57,45,0.00,40.00,19,14,27,0.00
2015-1-1,32,23,16,17,13,8,74,64,50,0.00,40.00,21,14,29,0.00
2015-1-2,37,30,20,32,22,14,92,74,50,0.00,40.00,14,6,19,0.00